sensor_id;sensor_type;location;lat;lon;timestamp;temperature;humidity
6662;DHT22;3367;48.714;8.994;2024-02-26T00:00:58;5.40;1.00
6662;DHT22;3367;48.714;8.994;2024-02-26T00:03:29;5.40;1.00
6662;DHT22;3367;48.714;8.994;2024-02-26T00:06:01;5.40;1.00
6662;DHT22;3367;48.714;8.994;2024-02-26T00:08:28;5.40;1.00
6662;DHT22;3367;48.714;8.994;2024-02-26T00:11:01;5.60;1.00
6662;DHT22;3367;48.714;8.994;2024-02-26T00:13:28;5.60;1.00
6662;DHT22;3367;48.714;8.994;2024-02-26T00:15:58;5.60;1.00
6662;DHT22;3367;48.714;8.994;2024-02-26T00:18:25;5.60;1.00
6662;DHT22;3367;48.714;8.994;2024-02-26T00:20:54;5.60;1.00
6662;DHT22;3367;48.714;8.994;2024-02-26T00:23:21;5.60;1.00
6662;DHT22;3367;48.714;8.994;2024-02-26T00:25:49;5.80;1.00
6662;DHT22;3367;48.714;8.994;2024-02-26T00:28:16;5.60;1.00
6662;DHT22;3367;48.714;8.994;2024-02-26T00:30:48;5.60;1.00
6662;DHT22;3367;48.714;8.994;2024-02-26T00:33:18;5.60;1.00
6662;DHT22;3367;48.714;8.994;2024-02-26T00:35:45;5.70;1.00
6662;DHT22;3367;48.714;8.994;2024-02-26T00:38:16;5.70;1.00
6662;DHT22;3367;48.714;8.994;2024-02-26T00:40:44;5.70;1.00
6662;DHT22;3367;48.714;8.994;2024-02-26T00:43:14;5.70;1.00
6662;DHT22;3367;48.714;8.994;2024-02-26T00:45:41;5.80;1.00
6662;DHT22;3367;48.714;8.994;2024-02-26T00:48:08;5.80;1.00
6662;DHT22;3367;48.714;8.994;2024-02-26T00:50:35;5.80;1.00
6662;DHT22;3367;48.714;8.994;2024-02-26T00:53:02;5.80;1.00
6662;DHT22;3367;48.714;8.994;2024-02-26T00:55:33;5.70;1.00
6662;DHT22;3367;48.714;8.994;2024-02-26T00:58:03;5.80;1.00
6662;DHT22;3367;48.714;8.994;2024-02-26T01:00:30;5.80;1.00
6662;DHT22;3367;48.714;8.994;2024-02-26T01:02:58;5.80;1.00
6662;DHT22;3367;48.714;8.994;2024-02-26T01:05:25;5.90;1.00
6662;DHT22;3367;48.714;8.994;2024-02-26T01:07:55;6.00;1.00
6662;DHT22;3367;48.714;8.994;2024-02-26T01:10:25;6.00;1.00
6662;DHT22;3367;48.714;8.994;2024-02-26T01:12:54;6.10;1.00
6662;DHT22;3367;48.714;8.994;2024-02-26T01:15:21;6.10;1.00
6662;DHT22;3367;48.714;8.994;2024-02-26T01:17:49;6.10;1.00
6662;DHT22;3367;48.714;8.994;2024-02-26T01:20:22;6.00;1.00
6662;DHT22;3367;48.714;8.994;2024-02-26T01:22:55;6.00;1.00
6662;DHT22;3367;48.714;8.994;2024-02-26T01:25:23;6.00;1.00
6662;DHT22;3367;48.714;8.994;2024-02-26T01:27:50;5.80;1.00
6662;DHT22;3367;48.714;8.994;2024-02-26T01:30:19;5.90;1.00
6662;DHT22;3367;48.714;8.994;2024-02-26T01:32:45;5.90;1.00
6662;DHT22;3367;48.714;8.994;2024-02-26T01:35:24;5.90;1.00
6662;DHT22;3367;48.714;8.994;2024-02-26T01:37:51;5.90;1.00
6662;DHT22;3367;48.714;8.994;2024-02-26T01:40:18;5.90;1.00
6662;DHT22;3367;48.714;8.994;2024-02-26T01:42:46;5.90;1.00
6662;DHT22;3367;48.714;8.994;2024-02-26T01:45:16;5.90;1.00
6662;DHT22;3367;48.714;8.994;2024-02-26T01:47:52;6.00;1.00
6662;DHT22;3367;48.714;8.994;2024-02-26T01:50:19;6.00;1.00
6662;DHT22;3367;48.714;8.994;2024-02-26T01:52:48;6.00;1.00
6662;DHT22;3367;48.714;8.994;2024-02-26T01:55:16;6.00;1.00
6662;DHT22;3367;48.714;8.994;2024-02-26T01:57:50;6.00;1.00
6662;DHT22;3367;48.714;8.994;2024-02-26T02:00:24;6.10;1.00
6662;DHT22;3367;48.714;8.994;2024-02-26T02:02:54;6.10;1.00
6662;DHT22;3367;48.714;8.994;2024-02-26T02:05:21;6.00;1.00
6662;DHT22;3367;48.714;8.994;2024-02-26T02:07:49;6.10;1.00
6662;DHT22;3367;48.714;8.994;2024-02-26T02:10:17;6.10;1.00
6662;DHT22;3367;48.714;8.994;2024-02-26T02:12:48;6.20;1.00
6662;DHT22;3367;48.714;8.994;2024-02-26T02:15:15;6.30;1.00
6662;DHT22;3367;48.714;8.994;2024-02-26T02:17:42;6.20;1.00
6662;DHT22;3367;48.714;8.994;2024-02-26T02:20:15;6.30;1.00
6662;DHT22;3367;48.714;8.994;2024-02-26T02:22:57;6.40;1.00
6662;DHT22;3367;48.714;8.994;2024-02-26T02:25:30;6.30;1.00
6662;DHT22;3367;48.714;8.994;2024-02-26T02:28:04;6.40;14.50
6662;DHT22;3367;48.714;8.994;2024-02-26T02:30:32;6.50;1.00
6662;DHT22;3367;48.714;8.994;2024-02-26T02:33:01;6.60;1.00
6662;DHT22;3367;48.714;8.994;2024-02-26T02:35:30;6.70;1.00
6662;DHT22;3367;48.714;8.994;2024-02-26T02:37:59;6.80;1.00
6662;DHT22;3367;48.714;8.994;2024-02-26T02:40:26;7.00;1.00
6662;DHT22;3367;48.714;8.994;2024-02-26T02:42:53;7.00;1.00
6662;DHT22;3367;48.714;8.994;2024-02-26T02:45:20;7.00;1.00
6662;DHT22;3367;48.714;8.994;2024-02-26T02:47:47;6.90;1.00
6662;DHT22;3367;48.714;8.994;2024-02-26T02:50:16;6.90;1.00
6662;DHT22;3367;48.714;8.994;2024-02-26T02:52:46;6.90;1.00
6662;DHT22;3367;48.714;8.994;2024-02-26T02:55:15;6.90;1.00
6662;DHT22;3367;48.714;8.994;2024-02-26T02:57:47;6.90;1.00
6662;DHT22;3367;48.714;8.994;2024-02-26T03:00:17;6.90;1.00
6662;DHT22;3367;48.714;8.994;2024-02-26T03:02:47;7.00;1.00
6662;DHT22;3367;48.714;8.994;2024-02-26T03:05:19;7.10;1.00
6662;DHT22;3367;48.714;8.994;2024-02-26T03:07:49;7.20;1.00
6662;DHT22;3367;48.714;8.994;2024-02-26T03:10:20;7.40;1.00
6662;DHT22;3367;48.714;8.994;2024-02-26T03:12:49;7.50;1.00
6662;DHT22;3367;48.714;8.994;2024-02-26T03:15:16;7.50;1.00
6662;DHT22;3367;48.714;8.994;2024-02-26T03:17:52;7.50;1.00
6662;DHT22;3367;48.714;8.994;2024-02-26T03:20:18;7.50;1.00
6662;DHT22;3367;48.714;8.994;2024-02-26T03:22:45;7.50;1.00
6662;DHT22;3367;48.714;8.994;2024-02-26T03:25:12;7.40;1.00
6662;DHT22;3367;48.714;8.994;2024-02-26T03:27:42;7.40;1.00
6662;DHT22;3367;48.714;8.994;2024-02-26T03:30:10;7.40;1.00
6662;DHT22;3367;48.714;8.994;2024-02-26T03:32:43;7.30;1.00
6662;DHT22;3367;48.714;8.994;2024-02-26T03:35:12;7.20;1.00
6662;DHT22;3367;48.714;8.994;2024-02-26T03:37:42;7.20;1.00
6662;DHT22;3367;48.714;8.994;2024-02-26T03:40:10;7.20;1.00
6662;DHT22;3367;48.714;8.994;2024-02-26T03:42:42;7.10;1.00
6662;DHT22;3367;48.714;8.994;2024-02-26T03:45:10;7.10;1.00
6662;DHT22;3367;48.714;8.994;2024-02-26T03:47:38;7.10;1.00
6662;DHT22;3367;48.714;8.994;2024-02-26T03:50:06;7.10;1.00
6662;DHT22;3367;48.714;8.994;2024-02-26T03:52:33;7.10;1.00
6662;DHT22;3367;48.714;8.994;2024-02-26T03:55:00;7.00;1.00
6662;DHT22;3367;48.714;8.994;2024-02-26T03:57:30;7.00;1.00
6662;DHT22;3367;48.714;8.994;2024-02-26T04:00:00;7.00;1.00
6662;DHT22;3367;48.714;8.994;2024-02-26T04:02:30;7.00;1.00
6662;DHT22;3367;48.714;8.994;2024-02-26T04:05:00;7.00;1.00
6662;DHT22;3367;48.714;8.994;2024-02-26T04:07:27;7.00;1.00
6662;DHT22;3367;48.714;8.994;2024-02-26T04:09:53;7.00;1.00
6662;DHT22;3367;48.714;8.994;2024-02-26T04:12:20;7.00;1.00
6662;DHT22;3367;48.714;8.994;2024-02-26T04:14:47;6.90;1.00
6662;DHT22;3367;48.714;8.994;2024-02-26T04:17:14;6.90;1.00
6662;DHT22;3367;48.714;8.994;2024-02-26T04:19:43;6.90;1.00
6662;DHT22;3367;48.714;8.994;2024-02-26T04:22:11;6.80;8.70
6662;DHT22;3367;48.714;8.994;2024-02-26T04:24:38;6.80;99.50
6662;DHT22;3367;48.714;8.994;2024-02-26T04:27:07;6.70;99.90
6662;DHT22;3367;48.714;8.994;2024-02-26T04:29:34;6.70;99.90
6662;DHT22;3367;48.714;8.994;2024-02-26T04:32:01;6.70;60.00
6662;DHT22;3367;48.714;8.994;2024-02-26T04:34:29;6.70;15.60
6662;DHT22;3367;48.714;8.994;2024-02-26T04:36:58;6.70;1.00
6662;DHT22;3367;48.714;8.994;2024-02-26T04:39:25;6.80;1.00
6662;DHT22;3367;48.714;8.994;2024-02-26T04:41:52;6.80;1.00
6662;DHT22;3367;48.714;8.994;2024-02-26T04:44:19;6.70;1.00
6662;DHT22;3367;48.714;8.994;2024-02-26T04:46:46;6.70;1.00
6662;DHT22;3367;48.714;8.994;2024-02-26T04:49:15;6.70;1.00
6662;DHT22;3367;48.714;8.994;2024-02-26T04:51:45;6.70;2.80
6662;DHT22;3367;48.714;8.994;2024-02-26T04:54:15;6.70;1.00
6662;DHT22;3367;48.714;8.994;2024-02-26T04:56:45;6.70;1.00
6662;DHT22;3367;48.714;8.994;2024-02-26T04:59:13;6.70;1.00
6662;DHT22;3367;48.714;8.994;2024-02-26T05:01:40;6.70;1.00
6662;DHT22;3367;48.714;8.994;2024-02-26T05:04:10;6.80;1.00
6662;DHT22;3367;48.714;8.994;2024-02-26T05:06:42;6.80;1.00
6662;DHT22;3367;48.714;8.994;2024-02-26T05:09:09;6.80;1.00
6662;DHT22;3367;48.714;8.994;2024-02-26T05:11:39;6.90;1.00
6662;DHT22;3367;48.714;8.994;2024-02-26T05:14:16;6.80;1.00
6662;DHT22;3367;48.714;8.994;2024-02-26T05:16:43;6.80;1.00
6662;DHT22;3367;48.714;8.994;2024-02-26T05:19:10;6.90;1.00
6662;DHT22;3367;48.714;8.994;2024-02-26T05:21:38;6.70;1.00
6662;DHT22;3367;48.714;8.994;2024-02-26T05:24:05;6.70;1.00
6662;DHT22;3367;48.714;8.994;2024-02-26T05:26:33;6.70;1.00
6662;DHT22;3367;48.714;8.994;2024-02-26T05:29:04;6.70;1.00
6662;DHT22;3367;48.714;8.994;2024-02-26T05:31:34;6.60;1.00
6662;DHT22;3367;48.714;8.994;2024-02-26T05:34:01;6.60;1.00
6662;DHT22;3367;48.714;8.994;2024-02-26T05:36:31;6.60;1.00
6662;DHT22;3367;48.714;8.994;2024-02-26T05:38:59;6.60;1.00
6662;DHT22;3367;48.714;8.994;2024-02-26T05:41:26;6.50;1.00
6662;DHT22;3367;48.714;8.994;2024-02-26T05:43:56;6.50;1.00
6662;DHT22;3367;48.714;8.994;2024-02-26T05:46:24;6.50;1.00
6662;DHT22;3367;48.714;8.994;2024-02-26T05:48:52;6.50;35.40
6662;DHT22;3367;48.714;8.994;2024-02-26T05:51:19;6.50;99.90
6662;DHT22;3367;48.714;8.994;2024-02-26T05:53:49;6.40;99.90
6662;DHT22;3367;48.714;8.994;2024-02-26T05:56:22;6.30;99.90
6662;DHT22;3367;48.714;8.994;2024-02-26T05:58:49;6.30;99.90
6662;DHT22;3367;48.714;8.994;2024-02-26T06:01:16;6.40;99.90
6662;DHT22;3367;48.714;8.994;2024-02-26T06:03:47;6.20;99.90
6662;DHT22;3367;48.714;8.994;2024-02-26T06:06:14;6.20;99.90
6662;DHT22;3367;48.714;8.994;2024-02-26T06:08:41;6.10;99.90
6662;DHT22;3367;48.714;8.994;2024-02-26T06:11:11;6.00;99.90
6662;DHT22;3367;48.714;8.994;2024-02-26T06:13:38;6.00;99.90
6662;DHT22;3367;48.714;8.994;2024-02-26T06:16:14;6.00;99.90
6662;DHT22;3367;48.714;8.994;2024-02-26T06:18:41;6.00;99.90
6662;DHT22;3367;48.714;8.994;2024-02-26T06:21:10;6.00;1.00
6662;DHT22;3367;48.714;8.994;2024-02-26T06:23:37;5.90;1.00
6662;DHT22;3367;48.714;8.994;2024-02-26T06:26:14;5.90;1.00
6662;DHT22;3367;48.714;8.994;2024-02-26T06:28:47;5.90;1.00
6662;DHT22;3367;48.714;8.994;2024-02-26T06:31:13;5.80;1.00
6662;DHT22;3367;48.714;8.994;2024-02-26T06:33:52;5.80;1.00
6662;DHT22;3367;48.714;8.994;2024-02-26T06:36:20;5.80;1.00
6662;DHT22;3367;48.714;8.994;2024-02-26T06:38:46;5.80;1.00
6662;DHT22;3367;48.714;8.994;2024-02-26T06:41:17;5.70;1.00
6662;DHT22;3367;48.714;8.994;2024-02-26T06:43:44;5.80;1.00
6662;DHT22;3367;48.714;8.994;2024-02-26T06:46:21;5.90;1.00
6662;DHT22;3367;48.714;8.994;2024-02-26T06:48:48;5.80;1.00
6662;DHT22;3367;48.714;8.994;2024-02-26T06:51:16;5.80;1.00
6662;DHT22;3367;48.714;8.994;2024-02-26T06:53:44;5.80;1.00
6662;DHT22;3367;48.714;8.994;2024-02-26T06:56:11;5.80;1.00
6662;DHT22;3367;48.714;8.994;2024-02-26T06:58:38;5.90;1.00
6662;DHT22;3367;48.714;8.994;2024-02-26T07:01:05;5.90;47.00
6662;DHT22;3367;48.714;8.994;2024-02-26T07:03:33;6.00;84.60
6662;DHT22;3367;48.714;8.994;2024-02-26T07:06:02;6.00;99.90
6662;DHT22;3367;48.714;8.994;2024-02-26T07:08:30;6.10;82.30
6662;DHT22;3367;48.714;8.994;2024-02-26T07:10:58;6.10;1.00
6662;DHT22;3367;48.714;8.994;2024-02-26T07:13:25;6.20;1.00
6662;DHT22;3367;48.714;8.994;2024-02-26T07:15:52;6.20;1.00
6662;DHT22;3367;48.714;8.994;2024-02-26T07:18:19;6.30;1.00
6662;DHT22;3367;48.714;8.994;2024-02-26T07:20:46;6.30;1.00
6662;DHT22;3367;48.714;8.994;2024-02-26T07:23:13;6.40;1.00
6662;DHT22;3367;48.714;8.994;2024-02-26T07:25:40;6.40;1.00
6662;DHT22;3367;48.714;8.994;2024-02-26T07:28:09;6.40;1.00
6662;DHT22;3367;48.714;8.994;2024-02-26T07:30:36;6.30;1.00
6662;DHT22;3367;48.714;8.994;2024-02-26T07:33:03;6.30;1.00
6662;DHT22;3367;48.714;8.994;2024-02-26T07:35:29;6.40;1.00
6662;DHT22;3367;48.714;8.994;2024-02-26T07:38:00;6.40;1.00
6662;DHT22;3367;48.714;8.994;2024-02-26T07:40:30;6.40;1.00
6662;DHT22;3367;48.714;8.994;2024-02-26T07:43:00;6.50;1.00
6662;DHT22;3367;48.714;8.994;2024-02-26T07:45:28;6.50;1.00
6662;DHT22;3367;48.714;8.994;2024-02-26T07:47:54;6.60;1.00
6662;DHT22;3367;48.714;8.994;2024-02-26T07:50:21;6.70;1.00
6662;DHT22;3367;48.714;8.994;2024-02-26T07:52:48;6.80;1.00
6662;DHT22;3367;48.714;8.994;2024-02-26T07:55:16;6.80;1.00
6662;DHT22;3367;48.714;8.994;2024-02-26T07:57:44;7.00;1.00
6662;DHT22;3367;48.714;8.994;2024-02-26T08:00:11;7.00;99.90
6662;DHT22;3367;48.714;8.994;2024-02-26T08:02:43;7.00;99.90
6662;DHT22;3367;48.714;8.994;2024-02-26T08:05:10;7.10;1.00
6662;DHT22;3367;48.714;8.994;2024-02-26T08:07:36;7.10;1.00
6662;DHT22;3367;48.714;8.994;2024-02-26T08:10:04;7.20;99.90
6662;DHT22;3367;48.714;8.994;2024-02-26T08:12:30;7.30;99.90
6662;DHT22;3367;48.714;8.994;2024-02-26T08:14:57;7.30;99.90
6662;DHT22;3367;48.714;8.994;2024-02-26T08:17:24;7.40;1.00
6662;DHT22;3367;48.714;8.994;2024-02-26T08:19:52;7.50;99.90
6662;DHT22;3367;48.714;8.994;2024-02-26T08:22:19;7.60;99.90
6662;DHT22;3367;48.714;8.994;2024-02-26T08:24:46;7.70;99.90
6662;DHT22;3367;48.714;8.994;2024-02-26T08:27:12;7.80;99.90
6662;DHT22;3367;48.714;8.994;2024-02-26T08:29:39;7.90;99.90
6662;DHT22;3367;48.714;8.994;2024-02-26T08:32:06;8.00;99.90
6662;DHT22;3367;48.714;8.994;2024-02-26T08:34:33;8.10;99.90
6662;DHT22;3367;48.714;8.994;2024-02-26T08:37:02;8.20;99.90
6662;DHT22;3367;48.714;8.994;2024-02-26T08:39:29;8.20;99.90
6662;DHT22;3367;48.714;8.994;2024-02-26T08:41:55;8.30;93.40
6662;DHT22;3367;48.714;8.994;2024-02-26T08:44:22;8.30;37.20
6662;DHT22;3367;48.714;8.994;2024-02-26T08:46:49;8.30;57.20
6662;DHT22;3367;48.714;8.994;2024-02-26T08:49:16;8.30;56.40
6662;DHT22;3367;48.714;8.994;2024-02-26T08:51:43;8.30;19.70
6662;DHT22;3367;48.714;8.994;2024-02-26T08:54:12;8.30;36.60
6662;DHT22;3367;48.714;8.994;2024-02-26T08:56:38;8.30;48.70
6662;DHT22;3367;48.714;8.994;2024-02-26T08:59:06;8.30;78.00
6662;DHT22;3367;48.714;8.994;2024-02-26T09:01:32;8.30;95.70
6662;DHT22;3367;48.714;8.994;2024-02-26T09:03:59;8.20;48.90
6662;DHT22;3367;48.714;8.994;2024-02-26T09:06:26;8.10;19.50
6662;DHT22;3367;48.714;8.994;2024-02-26T09:08:53;8.00;2.10
6662;DHT22;3367;48.714;8.994;2024-02-26T09:11:21;8.00;29.70
6662;DHT22;3367;48.714;8.994;2024-02-26T09:13:48;8.10;18.10
6662;DHT22;3367;48.714;8.994;2024-02-26T09:16:15;8.20;16.00
6662;DHT22;3367;48.714;8.994;2024-02-26T09:18:42;8.30;26.20
6662;DHT22;3367;48.714;8.994;2024-02-26T09:21:09;8.50;38.80
6662;DHT22;3367;48.714;8.994;2024-02-26T09:23:36;8.50;10.50
6662;DHT22;3367;48.714;8.994;2024-02-26T09:26:04;8.60;1.00
6662;DHT22;3367;48.714;8.994;2024-02-26T09:28:33;8.60;1.00
6662;DHT22;3367;48.714;8.994;2024-02-26T09:31:03;8.60;1.00
6662;DHT22;3367;48.714;8.994;2024-02-26T09:33:30;8.70;1.00
6662;DHT22;3367;48.714;8.994;2024-02-26T09:35:57;8.80;1.00
6662;DHT22;3367;48.714;8.994;2024-02-26T09:38:24;9.00;1.00
6662;DHT22;3367;48.714;8.994;2024-02-26T09:40:51;8.90;1.00
6662;DHT22;3367;48.714;8.994;2024-02-26T09:43:21;9.00;1.00
6662;DHT22;3367;48.714;8.994;2024-02-26T09:45:52;9.10;1.00
6662;DHT22;3367;48.714;8.994;2024-02-26T09:48:20;9.20;1.00
6662;DHT22;3367;48.714;8.994;2024-02-26T09:50:47;9.40;1.00
6662;DHT22;3367;48.714;8.994;2024-02-26T09:53:13;9.60;1.00
6662;DHT22;3367;48.714;8.994;2024-02-26T09:55:40;9.70;1.00
6662;DHT22;3367;48.714;8.994;2024-02-26T09:58:07;9.70;1.00
6662;DHT22;3367;48.714;8.994;2024-02-26T10:00:37;9.90;1.00
6662;DHT22;3367;48.714;8.994;2024-02-26T10:03:09;10.00;1.00
6662;DHT22;3367;48.714;8.994;2024-02-26T10:05:41;10.20;1.00
6662;DHT22;3367;48.714;8.994;2024-02-26T10:08:09;10.30;1.00
6662;DHT22;3367;48.714;8.994;2024-02-26T10:10:37;10.20;1.00
6662;DHT22;3367;48.714;8.994;2024-02-26T10:13:05;10.30;1.00
6662;DHT22;3367;48.714;8.994;2024-02-26T10:15:35;10.50;1.00
6662;DHT22;3367;48.714;8.994;2024-02-26T10:18:05;10.70;1.00
6662;DHT22;3367;48.714;8.994;2024-02-26T10:20:32;10.80;1.00
6662;DHT22;3367;48.714;8.994;2024-02-26T10:23:02;11.10;1.00
6662;DHT22;3367;48.714;8.994;2024-02-26T10:25:30;11.10;1.00
6662;DHT22;3367;48.714;8.994;2024-02-26T10:28:00;11.20;1.00
6662;DHT22;3367;48.714;8.994;2024-02-26T10:30:28;11.30;1.00
6662;DHT22;3367;48.714;8.994;2024-02-26T10:32:56;11.30;1.00
6662;DHT22;3367;48.714;8.994;2024-02-26T10:35:24;11.30;1.00
6662;DHT22;3367;48.714;8.994;2024-02-26T10:37:51;11.40;1.00
6662;DHT22;3367;48.714;8.994;2024-02-26T10:40:19;11.70;1.00
6662;DHT22;3367;48.714;8.994;2024-02-26T10:42:45;11.80;1.00
6662;DHT22;3367;48.714;8.994;2024-02-26T10:45:12;11.90;1.00
6662;DHT22;3367;48.714;8.994;2024-02-26T10:47:40;11.90;1.00
6662;DHT22;3367;48.714;8.994;2024-02-26T10:50:08;12.00;1.00
6662;DHT22;3367;48.714;8.994;2024-02-26T10:52:37;11.70;1.00
6662;DHT22;3367;48.714;8.994;2024-02-26T10:55:05;11.80;1.00
6662;DHT22;3367;48.714;8.994;2024-02-26T10:57:34;11.80;1.00
6662;DHT22;3367;48.714;8.994;2024-02-26T11:00:04;11.70;1.00
6662;DHT22;3367;48.714;8.994;2024-02-26T11:02:32;11.80;1.00
6662;DHT22;3367;48.714;8.994;2024-02-26T11:05:01;11.80;1.00
6662;DHT22;3367;48.714;8.994;2024-02-26T11:07:30;11.80;1.00
6662;DHT22;3367;48.714;8.994;2024-02-26T11:09:59;11.70;1.00
6662;DHT22;3367;48.714;8.994;2024-02-26T11:12:27;11.90;1.00
6662;DHT22;3367;48.714;8.994;2024-02-26T11:14:55;12.20;1.00
6662;DHT22;3367;48.714;8.994;2024-02-26T11:17:26;12.30;1.00
6662;DHT22;3367;48.714;8.994;2024-02-26T11:19:55;12.30;1.00
6662;DHT22;3367;48.714;8.994;2024-02-26T11:22:23;12.40;1.00
6662;DHT22;3367;48.714;8.994;2024-02-26T11:24:52;12.10;1.00
6662;DHT22;3367;48.714;8.994;2024-02-26T11:27:24;12.00;1.00
6662;DHT22;3367;48.714;8.994;2024-02-26T11:29:53;11.90;1.00
6662;DHT22;3367;48.714;8.994;2024-02-26T11:32:21;11.80;1.00
6662;DHT22;3367;48.714;8.994;2024-02-26T11:34:48;11.80;1.00
6662;DHT22;3367;48.714;8.994;2024-02-26T11:37:17;11.80;1.00
6662;DHT22;3367;48.714;8.994;2024-02-26T11:39:45;11.80;1.00
6662;DHT22;3367;48.714;8.994;2024-02-26T11:42:14;11.80;1.00
6662;DHT22;3367;48.714;8.994;2024-02-26T11:44:43;12.00;1.00
6662;DHT22;3367;48.714;8.994;2024-02-26T11:47:11;12.20;1.00
6662;DHT22;3367;48.714;8.994;2024-02-26T11:49:38;12.40;1.00
6662;DHT22;3367;48.714;8.994;2024-02-26T11:52:06;12.40;1.00
6662;DHT22;3367;48.714;8.994;2024-02-26T11:54:43;12.30;1.00
6662;DHT22;3367;48.714;8.994;2024-02-26T11:57:26;12.20;1.00
6662;DHT22;3367;48.714;8.994;2024-02-26T11:59:57;11.90;1.00
6662;DHT22;3367;48.714;8.994;2024-02-26T12:02:45;11.80;1.00
6662;DHT22;3367;48.714;8.994;2024-02-26T12:05:14;11.80;1.00
6662;DHT22;3367;48.714;8.994;2024-02-26T12:07:44;11.70;1.00
6662;DHT22;3367;48.714;8.994;2024-02-26T12:10:25;11.70;1.00
6662;DHT22;3367;48.714;8.994;2024-02-26T12:12:55;11.60;1.00
6662;DHT22;3367;48.714;8.994;2024-02-26T12:15:30;11.80;1.00
6662;DHT22;3367;48.714;8.994;2024-02-26T12:17:58;11.80;1.00
6662;DHT22;3367;48.714;8.994;2024-02-26T12:20:26;11.70;1.00
6662;DHT22;3367;48.714;8.994;2024-02-26T12:22:54;11.70;1.00
6662;DHT22;3367;48.714;8.994;2024-02-26T12:25:25;11.70;1.00
6662;DHT22;3367;48.714;8.994;2024-02-26T12:27:53;11.70;1.00
6662;DHT22;3367;48.714;8.994;2024-02-26T12:30:20;11.80;1.00
6662;DHT22;3367;48.714;8.994;2024-02-26T12:32:49;11.80;1.00
6662;DHT22;3367;48.714;8.994;2024-02-26T12:35:19;11.90;1.00
6662;DHT22;3367;48.714;8.994;2024-02-26T12:37:46;12.10;1.00
6662;DHT22;3367;48.714;8.994;2024-02-26T12:40:13;12.10;1.00
6662;DHT22;3367;48.714;8.994;2024-02-26T12:42:41;12.20;1.00
6662;DHT22;3367;48.714;8.994;2024-02-26T12:45:10;12.30;1.00
6662;DHT22;3367;48.714;8.994;2024-02-26T12:47:38;12.40;1.00
6662;DHT22;3367;48.714;8.994;2024-02-26T12:50:07;12.20;1.00
6662;DHT22;3367;48.714;8.994;2024-02-26T12:52:35;12.30;1.00
6662;DHT22;3367;48.714;8.994;2024-02-26T12:55:03;12.40;1.00
6662;DHT22;3367;48.714;8.994;2024-02-26T12:57:31;12.40;1.00
6662;DHT22;3367;48.714;8.994;2024-02-26T12:59:59;12.40;1.00
6662;DHT22;3367;48.714;8.994;2024-02-26T13:02:29;12.40;1.00
6662;DHT22;3367;48.714;8.994;2024-02-26T13:04:57;12.50;1.00
6662;DHT22;3367;48.714;8.994;2024-02-26T13:07:28;12.70;1.00
6662;DHT22;3367;48.714;8.994;2024-02-26T13:09:55;12.70;1.00
6662;DHT22;3367;48.714;8.994;2024-02-26T13:12:22;12.80;1.00
6662;DHT22;3367;48.714;8.994;2024-02-26T13:14:58;12.90;1.00
6662;DHT22;3367;48.714;8.994;2024-02-26T13:17:25;12.90;1.00
6662;DHT22;3367;48.714;8.994;2024-02-26T13:19:53;12.80;1.00
6662;DHT22;3367;48.714;8.994;2024-02-26T13:22:21;12.90;1.00
6662;DHT22;3367;48.714;8.994;2024-02-26T13:24:59;13.10;1.00
6662;DHT22;3367;48.714;8.994;2024-02-26T13:27:29;13.20;1.00
6662;DHT22;3367;48.714;8.994;2024-02-26T13:30:03;13.40;1.00
6662;DHT22;3367;48.714;8.994;2024-02-26T13:32:32;13.20;1.00
6662;DHT22;3367;48.714;8.994;2024-02-26T13:35:05;13.20;1.00
6662;DHT22;3367;48.714;8.994;2024-02-26T13:37:32;13.10;1.00
6662;DHT22;3367;48.714;8.994;2024-02-26T13:40:00;13.00;1.00
6662;DHT22;3367;48.714;8.994;2024-02-26T13:42:30;12.80;1.00
6662;DHT22;3367;48.714;8.994;2024-02-26T13:44:58;12.80;1.00
6662;DHT22;3367;48.714;8.994;2024-02-26T13:47:24;12.80;1.00
6662;DHT22;3367;48.714;8.994;2024-02-26T13:49:51;12.90;1.00
6662;DHT22;3367;48.714;8.994;2024-02-26T13:52:18;13.00;1.00
6662;DHT22;3367;48.714;8.994;2024-02-26T13:54:45;13.00;1.00
6662;DHT22;3367;48.714;8.994;2024-02-26T13:57:13;13.00;1.00
6662;DHT22;3367;48.714;8.994;2024-02-26T13:59:40;13.00;1.00
6662;DHT22;3367;48.714;8.994;2024-02-26T14:02:08;13.00;1.00
6662;DHT22;3367;48.714;8.994;2024-02-26T14:04:34;13.10;1.00
6662;DHT22;3367;48.714;8.994;2024-02-26T14:07:02;13.20;1.00
6662;DHT22;3367;48.714;8.994;2024-02-26T14:09:29;13.20;1.00
6662;DHT22;3367;48.714;8.994;2024-02-26T14:11:56;13.20;1.00
6662;DHT22;3367;48.714;8.994;2024-02-26T14:14:24;13.20;1.00
6662;DHT22;3367;48.714;8.994;2024-02-26T14:16:51;13.20;1.00
6662;DHT22;3367;48.714;8.994;2024-02-26T14:19:18;13.10;1.00
6662;DHT22;3367;48.714;8.994;2024-02-26T14:21:44;13.10;1.00
6662;DHT22;3367;48.714;8.994;2024-02-26T14:24:11;13.10;1.00
6662;DHT22;3367;48.714;8.994;2024-02-26T14:26:38;13.10;1.00
6662;DHT22;3367;48.714;8.994;2024-02-26T14:29:04;13.10;1.00
6662;DHT22;3367;48.714;8.994;2024-02-26T14:31:33;13.10;1.00
6662;DHT22;3367;48.714;8.994;2024-02-26T14:34:00;13.00;1.00
6662;DHT22;3367;48.714;8.994;2024-02-26T14:36:27;13.00;1.00
6662;DHT22;3367;48.714;8.994;2024-02-26T14:38:54;12.90;1.00
6662;DHT22;3367;48.714;8.994;2024-02-26T14:41:22;12.80;1.00
6662;DHT22;3367;48.714;8.994;2024-02-26T14:43:49;12.80;1.00
6662;DHT22;3367;48.714;8.994;2024-02-26T14:46:15;12.70;1.00
6662;DHT22;3367;48.714;8.994;2024-02-26T14:48:44;12.60;1.00
6662;DHT22;3367;48.714;8.994;2024-02-26T14:51:11;12.60;1.00
6662;DHT22;3367;48.714;8.994;2024-02-26T14:53:38;12.60;1.00
6662;DHT22;3367;48.714;8.994;2024-02-26T14:56:05;12.60;1.00
6662;DHT22;3367;48.714;8.994;2024-02-26T14:58:32;12.50;1.00
6662;DHT22;3367;48.714;8.994;2024-02-26T15:00:59;12.40;1.00
6662;DHT22;3367;48.714;8.994;2024-02-26T15:03:26;12.50;1.00
6662;DHT22;3367;48.714;8.994;2024-02-26T15:05:54;12.40;1.00
6662;DHT22;3367;48.714;8.994;2024-02-26T15:08:19;12.40;1.00
6662;DHT22;3367;48.714;8.994;2024-02-26T15:10:46;12.40;1.00
6662;DHT22;3367;48.714;8.994;2024-02-26T15:13:13;12.40;1.00
6662;DHT22;3367;48.714;8.994;2024-02-26T15:15:40;12.40;1.00
6662;DHT22;3367;48.714;8.994;2024-02-26T15:18:07;12.20;1.00
6662;DHT22;3367;48.714;8.994;2024-02-26T15:20:36;12.30;1.00
6662;DHT22;3367;48.714;8.994;2024-02-26T15:23:05;12.30;1.00
6662;DHT22;3367;48.714;8.994;2024-02-26T15:25:31;12.20;1.00
6662;DHT22;3367;48.714;8.994;2024-02-26T15:27:58;12.20;1.00
6662;DHT22;3367;48.714;8.994;2024-02-26T15:30:25;12.40;1.00
6662;DHT22;3367;48.714;8.994;2024-02-26T15:32:52;12.30;1.00
6662;DHT22;3367;48.714;8.994;2024-02-26T15:35:19;12.30;1.00
6662;DHT22;3367;48.714;8.994;2024-02-26T15:37:46;12.20;1.00
6662;DHT22;3367;48.714;8.994;2024-02-26T15:40:14;12.20;1.00
6662;DHT22;3367;48.714;8.994;2024-02-26T15:42:41;12.20;1.00
6662;DHT22;3367;48.714;8.994;2024-02-26T15:45:08;12.10;1.00
6662;DHT22;3367;48.714;8.994;2024-02-26T15:47:35;12.10;1.00
6662;DHT22;3367;48.714;8.994;2024-02-26T15:50:02;12.00;1.00
6662;DHT22;3367;48.714;8.994;2024-02-26T15:52:28;12.00;1.00
6662;DHT22;3367;48.714;8.994;2024-02-26T15:54:55;11.90;1.00
6662;DHT22;3367;48.714;8.994;2024-02-26T15:57:23;12.00;1.00
6662;DHT22;3367;48.714;8.994;2024-02-26T15:59:50;11.90;1.00
6662;DHT22;3367;48.714;8.994;2024-02-26T16:02:18;11.90;1.00
6662;DHT22;3367;48.714;8.994;2024-02-26T16:04:46;11.90;1.00
6662;DHT22;3367;48.714;8.994;2024-02-26T16:07:17;11.80;1.00
6662;DHT22;3367;48.714;8.994;2024-02-26T16:09:50;11.80;1.00
6662;DHT22;3367;48.714;8.994;2024-02-26T16:12:20;11.70;1.00
6662;DHT22;3367;48.714;8.994;2024-02-26T16:14:50;11.70;1.00
6662;DHT22;3367;48.714;8.994;2024-02-26T16:17:20;11.60;1.00
6662;DHT22;3367;48.714;8.994;2024-02-26T16:19:48;11.60;1.00
6662;DHT22;3367;48.714;8.994;2024-02-26T16:22:16;11.60;1.00
6662;DHT22;3367;48.714;8.994;2024-02-26T16:24:43;11.50;1.00
6662;DHT22;3367;48.714;8.994;2024-02-26T16:27:10;11.50;1.00
6662;DHT22;3367;48.714;8.994;2024-02-26T16:29:36;11.50;1.00
6662;DHT22;3367;48.714;8.994;2024-02-26T16:32:05;11.50;1.00